sensor_id;sensor_type;location;lat;lon;timestamp;P1;durP1;ratioP1;P2;durP2;ratioP2
65172;SDS011;51758;52.218;5.172;2023-04-03T00:01:02;4.15;;;1.55;;
65172;SDS011;51758;52.218;5.172;2023-04-03T00:03:31;3.88;;;1.67;;
65172;SDS011;51758;52.218;5.172;2023-04-03T00:05:59;4.15;;;1.83;;
65172;SDS011;51758;52.218;5.172;2023-04-03T00:08:28;3.17;;;1.55;;
65172;SDS011;51758;52.218;5.172;2023-04-03T00:10:57;3.40;;;1.70;;
65172;SDS011;51758;52.218;5.172;2023-04-03T00:13:26;4.82;;;1.60;;
65172;SDS011;51758;52.218;5.172;2023-04-03T00:15:54;4.47;;;1.70;;
65172;SDS011;51758;52.218;5.172;2023-04-03T00:18:22;3.00;;;1.50;;
65172;SDS011;51758;52.218;5.172;2023-04-03T00:20:50;5.57;;;1.60;;
65172;SDS011;51758;52.218;5.172;2023-04-03T00:23:18;2.67;;;1.70;;
65172;SDS011;51758;52.218;5.172;2023-04-03T00:25:45;4.43;;;1.73;;
65172;SDS011;51758;52.218;5.172;2023-04-03T00:28:13;4.13;;;1.40;;
65172;SDS011;51758;52.218;5.172;2023-04-03T00:30:42;2.50;;;1.43;;
65172;SDS011;51758;52.218;5.172;2023-04-03T00:35:38;3.28;;;1.80;;
65172;SDS011;51758;52.218;5.172;2023-04-03T00:38:07;4.63;;;2.30;;
65172;SDS011;51758;52.218;5.172;2023-04-03T00:40:36;2.47;;;1.45;;
65172;SDS011;51758;52.218;5.172;2023-04-03T00:43:08;2.93;;;1.60;;
65172;SDS011;51758;52.218;5.172;2023-04-03T00:45:39;2.97;;;1.60;;
65172;SDS011;51758;52.218;5.172;2023-04-03T00:48:11;2.87;;;1.60;;
65172;SDS011;51758;52.218;5.172;2023-04-03T00:50:43;3.57;;;1.47;;
65172;SDS011;51758;52.218;5.172;2023-04-03T00:55:42;4.33;;;1.53;;
65172;SDS011;51758;52.218;5.172;2023-04-03T00:58:11;2.70;;;1.57;;
65172;SDS011;51758;52.218;5.172;2023-04-03T01:00:40;2.87;;;1.43;;
65172;SDS011;51758;52.218;5.172;2023-04-03T01:03:13;2.97;;;1.30;;
65172;SDS011;51758;52.218;5.172;2023-04-03T01:05:41;5.13;;;1.60;;
65172;SDS011;51758;52.218;5.172;2023-04-03T01:08:09;2.13;;;1.40;;
65172;SDS011;51758;52.218;5.172;2023-04-03T01:10:36;3.80;;;1.53;;
65172;SDS011;51758;52.218;5.172;2023-04-03T01:13:16;4.43;;;1.70;;
65172;SDS011;51758;52.218;5.172;2023-04-03T01:15:45;1.93;;;1.27;;
65172;SDS011;51758;52.218;5.172;2023-04-03T01:18:15;3.07;;;1.97;;
65172;SDS011;51758;52.218;5.172;2023-04-03T01:21:05;2.17;;;1.60;;
65172;SDS011;51758;52.218;5.172;2023-04-03T01:23:58;3.20;;;1.73;;
65172;SDS011;51758;52.218;5.172;2023-04-03T01:26:34;2.90;;;1.43;;
65172;SDS011;51758;52.218;5.172;2023-04-03T01:29:03;3.60;;;1.53;;
65172;SDS011;51758;52.218;5.172;2023-04-03T01:34:03;5.60;;;1.60;;
65172;SDS011;51758;52.218;5.172;2023-04-03T01:36:31;4.03;;;1.90;;
65172;SDS011;51758;52.218;5.172;2023-04-03T01:38:59;3.22;;;1.50;;
65172;SDS011;51758;52.218;5.172;2023-04-03T01:41:28;6.28;;;2.05;;
65172;SDS011;51758;52.218;5.172;2023-04-03T01:43:56;2.83;;;1.60;;
65172;SDS011;51758;52.218;5.172;2023-04-03T01:46:24;5.63;;;2.00;;
65172;SDS011;51758;52.218;5.172;2023-04-03T01:48:52;5.80;;;1.90;;
65172;SDS011;51758;52.218;5.172;2023-04-03T01:51:21;3.37;;;1.70;;
65172;SDS011;51758;52.218;5.172;2023-04-03T01:53:49;3.00;;;1.47;;
65172;SDS011;51758;52.218;5.172;2023-04-03T01:56:17;3.00;;;1.77;;
65172;SDS011;51758;52.218;5.172;2023-04-03T01:58:46;2.80;;;1.58;;
65172;SDS011;51758;52.218;5.172;2023-04-03T02:01:14;4.15;;;1.38;;
65172;SDS011;51758;52.218;5.172;2023-04-03T02:03:42;5.25;;;1.80;;
65172;SDS011;51758;52.218;5.172;2023-04-03T02:06:10;3.42;;;1.50;;
65172;SDS011;51758;52.218;5.172;2023-04-03T02:08:39;4.10;;;1.65;;
65172;SDS011;51758;52.218;5.172;2023-04-03T02:11:07;2.37;;;1.60;;
65172;SDS011;51758;52.218;5.172;2023-04-03T02:13:35;2.97;;;1.50;;
65172;SDS011;51758;52.218;5.172;2023-04-03T02:16:06;2.73;;;1.70;;
65172;SDS011;51758;52.218;5.172;2023-04-03T02:18:36;4.87;;;2.03;;
65172;SDS011;51758;52.218;5.172;2023-04-03T02:21:04;6.55;;;1.77;;
65172;SDS011;51758;52.218;5.172;2023-04-03T02:23:31;6.70;;;2.10;;
65172;SDS011;51758;52.218;5.172;2023-04-03T02:26:05;3.33;;;1.60;;
65172;SDS011;51758;52.218;5.172;2023-04-03T02:28:34;4.90;;;1.67;;
65172;SDS011;51758;52.218;5.172;2023-04-03T02:31:02;2.77;;;1.60;;
65172;SDS011;51758;52.218;5.172;2023-04-03T02:33:30;6.70;;;1.90;;
65172;SDS011;51758;52.218;5.172;2023-04-03T02:35:58;6.47;;;1.97;;
65172;SDS011;51758;52.218;5.172;2023-04-03T02:38:26;4.15;;;2.00;;
65172;SDS011;51758;52.218;5.172;2023-04-03T02:40:59;3.77;;;2.07;;
65172;SDS011;51758;52.218;5.172;2023-04-03T02:43:29;8.70;;;2.30;;
65172;SDS011;51758;52.218;5.172;2023-04-03T02:45:57;3.67;;;1.97;;
65172;SDS011;51758;52.218;5.172;2023-04-03T02:48:25;4.13;;;1.90;;
65172;SDS011;51758;52.218;5.172;2023-04-03T02:50:53;4.78;;;1.75;;
65172;SDS011;51758;52.218;5.172;2023-04-03T02:53:21;2.42;;;1.67;;
65172;SDS011;51758;52.218;5.172;2023-04-03T02:55:49;3.55;;;1.63;;
65172;SDS011;51758;52.218;5.172;2023-04-03T02:58:17;6.27;;;1.80;;
65172;SDS011;51758;52.218;5.172;2023-04-03T03:00:46;5.57;;;2.17;;
65172;SDS011;51758;52.218;5.172;2023-04-03T03:03:13;4.03;;;1.87;;
65172;SDS011;51758;52.218;5.172;2023-04-03T03:05:41;3.40;;;1.97;;
65172;SDS011;51758;52.218;5.172;2023-04-03T03:08:09;4.87;;;2.10;;
65172;SDS011;51758;52.218;5.172;2023-04-03T03:10:37;4.23;;;1.60;;
65172;SDS011;51758;52.218;5.172;2023-04-03T03:13:05;4.70;;;2.00;;
65172;SDS011;51758;52.218;5.172;2023-04-03T03:15:32;5.63;;;1.93;;
65172;SDS011;51758;52.218;5.172;2023-04-03T03:18:01;7.27;;;2.13;;
65172;SDS011;51758;52.218;5.172;2023-04-03T03:20:30;4.60;;;1.90;;
65172;SDS011;51758;52.218;5.172;2023-04-03T03:22:57;4.00;;;2.37;;
65172;SDS011;51758;52.218;5.172;2023-04-03T03:25:25;3.83;;;2.10;;
65172;SDS011;51758;52.218;5.172;2023-04-03T03:27:53;3.90;;;2.00;;
65172;SDS011;51758;52.218;5.172;2023-04-03T03:30:20;9.73;;;1.97;;
65172;SDS011;51758;52.218;5.172;2023-04-03T03:32:48;5.07;;;2.20;;
65172;SDS011;51758;52.218;5.172;2023-04-03T03:35:17;3.43;;;2.00;;
65172;SDS011;51758;52.218;5.172;2023-04-03T03:37:45;3.30;;;1.70;;
65172;SDS011;51758;52.218;5.172;2023-04-03T03:40:12;3.87;;;1.70;;
65172;SDS011;51758;52.218;5.172;2023-04-03T03:42:44;4.47;;;2.10;;
65172;SDS011;51758;52.218;5.172;2023-04-03T03:45:12;4.53;;;1.83;;
65172;SDS011;51758;52.218;5.172;2023-04-03T03:47:39;7.70;;;2.37;;
65172;SDS011;51758;52.218;5.172;2023-04-03T03:50:08;4.53;;;2.00;;
65172;SDS011;51758;52.218;5.172;2023-04-03T03:57:33;7.65;;;2.10;;
65172;SDS011;51758;52.218;5.172;2023-04-03T04:00:01;5.17;;;1.90;;
65172;SDS011;51758;52.218;5.172;2023-04-03T04:02:30;5.03;;;2.00;;
65172;SDS011;51758;52.218;5.172;2023-04-03T04:04:58;4.87;;;2.20;;
65172;SDS011;51758;52.218;5.172;2023-04-03T04:07:26;7.20;;;2.30;;
65172;SDS011;51758;52.218;5.172;2023-04-03T04:09:56;3.67;;;2.07;;
65172;SDS011;51758;52.218;5.172;2023-04-03T04:12:24;6.03;;;2.43;;
65172;SDS011;51758;52.218;5.172;2023-04-03T04:14:52;4.17;;;2.23;;
65172;SDS011;51758;52.218;5.172;2023-04-03T04:17:20;3.60;;;2.10;;
65172;SDS011;51758;52.218;5.172;2023-04-03T04:19:48;3.22;;;1.80;;
65172;SDS011;51758;52.218;5.172;2023-04-03T04:22:16;7.07;;;2.47;;
65172;SDS011;51758;52.218;5.172;2023-04-03T04:24:44;6.53;;;2.50;;
65172;SDS011;51758;52.218;5.172;2023-04-03T04:27:13;3.83;;;2.30;;
65172;SDS011;51758;52.218;5.172;2023-04-03T04:29:41;5.03;;;2.17;;
65172;SDS011;51758;52.218;5.172;2023-04-03T04:32:09;4.50;;;2.17;;
65172;SDS011;51758;52.218;5.172;2023-04-03T04:34:37;6.70;;;2.40;;
65172;SDS011;51758;52.218;5.172;2023-04-03T04:37:05;3.53;;;2.27;;
65172;SDS011;51758;52.218;5.172;2023-04-03T04:39:33;6.10;;;2.60;;
65172;SDS011;51758;52.218;5.172;2023-04-03T04:44:31;6.93;;;2.50;;
65172;SDS011;51758;52.218;5.172;2023-04-03T04:46:58;8.33;;;2.40;;
65172;SDS011;51758;52.218;5.172;2023-04-03T04:49:26;4.93;;;2.33;;
65172;SDS011;51758;52.218;5.172;2023-04-03T04:51:54;9.67;;;2.67;;
65172;SDS011;51758;52.218;5.172;2023-04-03T04:54:22;7.07;;;2.20;;
65172;SDS011;51758;52.218;5.172;2023-04-03T04:56:50;5.07;;;2.37;;
65172;SDS011;51758;52.218;5.172;2023-04-03T04:59:17;6.33;;;2.30;;
65172;SDS011;51758;52.218;5.172;2023-04-03T05:01:48;3.73;;;2.27;;
65172;SDS011;51758;52.218;5.172;2023-04-03T05:04:16;6.17;;;2.50;;
65172;SDS011;51758;52.218;5.172;2023-04-03T05:06:44;9.23;;;2.80;;
65172;SDS011;51758;52.218;5.172;2023-04-03T05:09:12;5.00;;;2.47;;
65172;SDS011;51758;52.218;5.172;2023-04-03T05:11:40;4.93;;;2.50;;
65172;SDS011;51758;52.218;5.172;2023-04-03T05:14:08;5.15;;;2.80;;
65172;SDS011;51758;52.218;5.172;2023-04-03T05:16:36;6.40;;;2.60;;
65172;SDS011;51758;52.218;5.172;2023-04-03T05:19:05;6.90;;;2.70;;
65172;SDS011;51758;52.218;5.172;2023-04-03T05:21:33;7.67;;;3.00;;
65172;SDS011;51758;52.218;5.172;2023-04-03T05:24:01;7.27;;;3.20;;
65172;SDS011;51758;52.218;5.172;2023-04-03T05:26:29;6.95;;;2.90;;
65172;SDS011;51758;52.218;5.172;2023-04-03T05:28:58;8.35;;;4.45;;
65172;SDS011;51758;52.218;5.172;2023-04-03T05:31:25;6.43;;;4.05;;
65172;SDS011;51758;52.218;5.172;2023-04-03T05:33:55;7.50;;;2.77;;
65172;SDS011;51758;52.218;5.172;2023-04-03T05:36:25;5.75;;;2.70;;
65172;SDS011;51758;52.218;5.172;2023-04-03T05:38:53;6.13;;;3.07;;
65172;SDS011;51758;52.218;5.172;2023-04-03T05:43:51;9.25;;;2.70;;
65172;SDS011;51758;52.218;5.172;2023-04-03T05:46:18;4.40;;;2.77;;
65172;SDS011;51758;52.218;5.172;2023-04-03T05:48:48;7.17;;;2.90;;
65172;SDS011;51758;52.218;5.172;2023-04-03T05:51:17;4.88;;;2.92;;
65172;SDS011;51758;52.218;5.172;2023-04-03T05:53:48;6.27;;;2.93;;
65172;SDS011;51758;52.218;5.172;2023-04-03T05:56:22;7.20;;;3.10;;
65172;SDS011;51758;52.218;5.172;2023-04-03T05:58:49;8.00;;;2.90;;
65172;SDS011;51758;52.218;5.172;2023-04-03T06:01:17;7.60;;;3.50;;
65172;SDS011;51758;52.218;5.172;2023-04-03T06:03:45;7.82;;;3.60;;
65172;SDS011;51758;52.218;5.172;2023-04-03T06:06:13;9.68;;;4.05;;
65172;SDS011;51758;52.218;5.172;2023-04-03T06:08:41;11.52;;;3.80;;
65172;SDS011;51758;52.218;5.172;2023-04-03T06:11:11;10.50;;;3.90;;
65172;SDS011;51758;52.218;5.172;2023-04-03T06:13:38;10.33;;;3.17;;
65172;SDS011;51758;52.218;5.172;2023-04-03T06:16:07;9.27;;;2.97;;
65172;SDS011;51758;52.218;5.172;2023-04-03T06:18:36;8.63;;;3.47;;
65172;SDS011;51758;52.218;5.172;2023-04-03T06:21:04;7.53;;;2.75;;
65172;SDS011;51758;52.218;5.172;2023-04-03T06:23:33;12.60;;;2.63;;
65172;SDS011;51758;52.218;5.172;2023-04-03T06:26:01;4.87;;;2.37;;
65172;SDS011;51758;52.218;5.172;2023-04-03T06:28:31;7.68;;;2.70;;
65172;SDS011;51758;52.218;5.172;2023-04-03T06:30:59;8.90;;;2.90;;
65172;SDS011;51758;52.218;5.172;2023-04-03T06:33:27;7.20;;;2.53;;
65172;SDS011;51758;52.218;5.172;2023-04-03T06:35:58;8.50;;;2.80;;
65172;SDS011;51758;52.218;5.172;2023-04-03T06:38:26;7.13;;;2.50;;
65172;SDS011;51758;52.218;5.172;2023-04-03T06:40:54;6.63;;;2.57;;
65172;SDS011;51758;52.218;5.172;2023-04-03T06:43:22;5.63;;;2.30;;
65172;SDS011;51758;52.218;5.172;2023-04-03T06:45:52;6.75;;;2.38;;
65172;SDS011;51758;52.218;5.172;2023-04-03T06:48:21;7.03;;;2.30;;
65172;SDS011;51758;52.218;5.172;2023-04-03T06:50:49;5.85;;;2.17;;
65172;SDS011;51758;52.218;5.172;2023-04-03T06:53:17;6.33;;;2.23;;
65172;SDS011;51758;52.218;5.172;2023-04-03T06:55:45;5.22;;;2.83;;
65172;SDS011;51758;52.218;5.172;2023-04-03T06:58:13;6.57;;;2.17;;
65172;SDS011;51758;52.218;5.172;2023-04-03T07:00:45;6.00;;;2.47;;
65172;SDS011;51758;52.218;5.172;2023-04-03T07:03:14;4.65;;;2.28;;
65172;SDS011;51758;52.218;5.172;2023-04-03T07:05:42;7.47;;;2.53;;
65172;SDS011;51758;52.218;5.172;2023-04-03T07:08:11;5.32;;;2.00;;
65172;SDS011;51758;52.218;5.172;2023-04-03T07:10:38;4.77;;;2.10;;
65172;SDS011;51758;52.218;5.172;2023-04-03T07:13:06;5.40;;;2.93;;
65172;SDS011;51758;52.218;5.172;2023-04-03T07:15:34;6.23;;;2.30;;
65172;SDS011;51758;52.218;5.172;2023-04-03T07:18:03;9.97;;;2.50;;
65172;SDS011;51758;52.218;5.172;2023-04-03T07:23:01;5.40;;;2.37;;
65172;SDS011;51758;52.218;5.172;2023-04-03T07:25:29;6.57;;;2.20;;
65172;SDS011;51758;52.218;5.172;2023-04-03T07:27:57;7.10;;;2.03;;
65172;SDS011;51758;52.218;5.172;2023-04-03T07:30:25;7.43;;;2.57;;
65172;SDS011;51758;52.218;5.172;2023-04-03T07:32:53;7.03;;;2.60;;
65172;SDS011;51758;52.218;5.172;2023-04-03T07:35:21;5.55;;;2.00;;
65172;SDS011;51758;52.218;5.172;2023-04-03T07:37:50;6.17;;;2.33;;
65172;SDS011;51758;52.218;5.172;2023-04-03T07:40:19;5.70;;;2.10;;
65172;SDS011;51758;52.218;5.172;2023-04-03T07:42:47;5.03;;;2.22;;
65172;SDS011;51758;52.218;5.172;2023-04-03T07:45:16;5.97;;;2.45;;
65172;SDS011;51758;52.218;5.172;2023-04-03T07:47:45;6.83;;;2.10;;
65172;SDS011;51758;52.218;5.172;2023-04-03T07:52:42;6.95;;;2.85;;
65172;SDS011;51758;52.218;5.172;2023-04-03T07:55:11;3.10;;;1.80;;
65172;SDS011;51758;52.218;5.172;2023-04-03T07:57:39;5.80;;;2.30;;
65172;SDS011;51758;52.218;5.172;2023-04-03T08:00:07;3.50;;;2.30;;
65172;SDS011;51758;52.218;5.172;2023-04-03T08:02:36;6.00;;;2.30;;
65172;SDS011;51758;52.218;5.172;2023-04-03T08:05:04;4.07;;;1.90;;
65172;SDS011;51758;52.218;5.172;2023-04-03T08:07:32;7.15;;;2.20;;
65172;SDS011;51758;52.218;5.172;2023-04-03T08:10:00;4.27;;;1.77;;
65172;SDS011;51758;52.218;5.172;2023-04-03T08:12:29;4.80;;;1.90;;
65172;SDS011;51758;52.218;5.172;2023-04-03T08:14:59;5.87;;;2.27;;
65172;SDS011;51758;52.218;5.172;2023-04-03T08:17:27;5.50;;;2.20;;
65172;SDS011;51758;52.218;5.172;2023-04-03T08:19:55;4.47;;;2.43;;
65172;SDS011;51758;52.218;5.172;2023-04-03T08:22:22;4.67;;;2.27;;
65172;SDS011;51758;52.218;5.172;2023-04-03T08:24:50;5.78;;;1.77;;
65172;SDS011;51758;52.218;5.172;2023-04-03T08:27:25;6.70;;;2.73;;
65172;SDS011;51758;52.218;5.172;2023-04-03T08:29:54;5.93;;;2.05;;
65172;SDS011;51758;52.218;5.172;2023-04-03T08:32:24;3.13;;;1.60;;
65172;SDS011;51758;52.218;5.172;2023-04-03T08:34:52;4.57;;;1.95;;
65172;SDS011;51758;52.218;5.172;2023-04-03T08:37:20;6.07;;;1.90;;
65172;SDS011;51758;52.218;5.172;2023-04-03T08:39:48;4.05;;;1.67;;
65172;SDS011;51758;52.218;5.172;2023-04-03T08:42:18;8.27;;;1.80;;
65172;SDS011;51758;52.218;5.172;2023-04-03T08:45:02;4.87;;;1.50;;
65172;SDS011;51758;52.218;5.172;2023-04-03T08:47:37;4.30;;;1.73;;
65172;SDS011;51758;52.218;5.172;2023-04-03T08:50:11;2.53;;;1.40;;
65172;SDS011;51758;52.218;5.172;2023-04-03T08:52:44;5.43;;;1.40;;
65172;SDS011;51758;52.218;5.172;2023-04-03T08:55:18;3.17;;;1.43;;
65172;SDS011;51758;52.218;5.172;2023-04-03T08:57:51;4.97;;;1.70;;
65172;SDS011;51758;52.218;5.172;2023-04-03T09:00:28;3.00;;;1.60;;
65172;SDS011;51758;52.218;5.172;2023-04-03T09:02:59;2.77;;;1.40;;
65172;SDS011;51758;52.218;5.172;2023-04-03T09:05:31;4.80;;;1.42;;
65172;SDS011;51758;52.218;5.172;2023-04-03T09:08:12;3.07;;;1.20;;
65172;SDS011;51758;52.218;5.172;2023-04-03T09:10:48;3.67;;;1.40;;
65172;SDS011;51758;52.218;5.172;2023-04-03T09:13:22;2.67;;;1.17;;
65172;SDS011;51758;52.218;5.172;2023-04-03T09:15:55;2.83;;;1.30;;
65172;SDS011;51758;52.218;5.172;2023-04-03T09:18:25;4.05;;;1.40;;
65172;SDS011;51758;52.218;5.172;2023-04-03T09:21:00;2.92;;;1.05;;
65172;SDS011;51758;52.218;5.172;2023-04-03T09:23:33;2.80;;;1.30;;
65172;SDS011;51758;52.218;5.172;2023-04-03T09:26:08;2.88;;;1.10;;
65172;SDS011;51758;52.218;5.172;2023-04-03T09:28:44;3.42;;;1.27;;
65172;SDS011;51758;52.218;5.172;2023-04-03T09:31:18;1.48;;;1.08;;
65172;SDS011;51758;52.218;5.172;2023-04-03T09:33:49;2.53;;;1.13;;
65172;SDS011;51758;52.218;5.172;2023-04-03T09:39:09;1.63;;;0.90;;
65172;SDS011;51758;52.218;5.172;2023-04-03T09:41:39;2.30;;;0.80;;
65172;SDS011;51758;52.218;5.172;2023-04-03T09:44:18;3.25;;;1.10;;
65172;SDS011;51758;52.218;5.172;2023-04-03T09:46:50;1.98;;;0.80;;
65172;SDS011;51758;52.218;5.172;2023-04-03T09:49:18;1.50;;;1.00;;
65172;SDS011;51758;52.218;5.172;2023-04-03T09:51:47;3.00;;;1.13;;
65172;SDS011;51758;52.218;5.172;2023-04-03T09:54:32;2.38;;;0.80;;
65172;SDS011;51758;52.218;5.172;2023-04-03T09:57:07;1.75;;;0.95;;
65172;SDS011;51758;52.218;5.172;2023-04-03T09:59:42;1.53;;;0.90;;
65172;SDS011;51758;52.218;5.172;2023-04-03T10:02:22;2.33;;;0.90;;
65172;SDS011;51758;52.218;5.172;2023-04-03T10:04:58;2.07;;;0.90;;
65172;SDS011;51758;52.218;5.172;2023-04-03T10:07:36;2.03;;;0.70;;
65172;SDS011;51758;52.218;5.172;2023-04-03T10:10:18;2.07;;;0.90;;
65172;SDS011;51758;52.218;5.172;2023-04-03T10:15:30;0.87;;;0.70;;
65172;SDS011;51758;52.218;5.172;2023-04-03T10:18:06;1.80;;;0.80;;
65172;SDS011;51758;52.218;5.172;2023-04-03T10:20:50;1.23;;;0.90;;
65172;SDS011;51758;52.218;5.172;2023-04-03T10:23:21;2.40;;;0.67;;
65172;SDS011;51758;52.218;5.172;2023-04-03T10:25:55;1.30;;;0.70;;
65172;SDS011;51758;52.218;5.172;2023-04-03T10:28:35;2.00;;;0.70;;
65172;SDS011;51758;52.218;5.172;2023-04-03T10:31:13;1.10;;;0.70;;
65172;SDS011;51758;52.218;5.172;2023-04-03T10:33:53;0.63;;;0.60;;
65172;SDS011;51758;52.218;5.172;2023-04-03T10:36:31;3.17;;;0.90;;
65172;SDS011;51758;52.218;5.172;2023-04-03T10:39:08;1.02;;;0.60;;
65172;SDS011;51758;52.218;5.172;2023-04-03T10:41:47;1.67;;;0.63;;
65172;SDS011;51758;52.218;5.172;2023-04-03T10:44:36;1.52;;;0.57;;
65172;SDS011;51758;52.218;5.172;2023-04-03T10:47:15;2.03;;;0.70;;
65172;SDS011;51758;52.218;5.172;2023-04-03T10:49:52;0.70;;;0.70;;
65172;SDS011;51758;52.218;5.172;2023-04-03T10:52:29;4.22;;;0.70;;
65172;SDS011;51758;52.218;5.172;2023-04-03T10:55:07;0.98;;;0.80;;
65172;SDS011;51758;52.218;5.172;2023-04-03T10:57:47;2.00;;;0.73;;
65172;SDS011;51758;52.218;5.172;2023-04-03T11:00:18;0.50;;;0.50;;
65172;SDS011;51758;52.218;5.172;2023-04-03T11:02:50;5.03;;;0.90;;
65172;SDS011;51758;52.218;5.172;2023-04-03T11:05:26;1.35;;;0.70;;
65172;SDS011;51758;52.218;5.172;2023-04-03T11:08:01;2.47;;;0.80;;
65172;SDS011;51758;52.218;5.172;2023-04-03T11:10:35;1.02;;;0.65;;
65172;SDS011;51758;52.218;5.172;2023-04-03T11:13:08;0.98;;;0.80;;
65172;SDS011;51758;52.218;5.172;2023-04-03T11:15:40;1.10;;;0.77;;
65172;SDS011;51758;52.218;5.172;2023-04-03T11:18:11;0.57;;;0.50;;
65172;SDS011;51758;52.218;5.172;2023-04-03T11:20:46;1.60;;;0.70;;
65172;SDS011;51758;52.218;5.172;2023-04-03T11:23:22;1.27;;;0.60;;
65172;SDS011;51758;52.218;5.172;2023-04-03T11:26:08;1.52;;;0.60;;
65172;SDS011;51758;52.218;5.172;2023-04-03T11:28:39;1.48;;;0.90;;
65172;SDS011;51758;52.218;5.172;2023-04-03T11:31:10;1.50;;;0.73;;
65172;SDS011;51758;52.218;5.172;2023-04-03T11:33:51;0.77;;;0.70;;
65172;SDS011;51758;52.218;5.172;2023-04-03T11:36:29;0.93;;;0.70;;
65172;SDS011;51758;52.218;5.172;2023-04-03T11:39:07;1.65;;;0.68;;
65172;SDS011;51758;52.218;5.172;2023-04-03T11:41:44;1.63;;;0.80;;
65172;SDS011;51758;52.218;5.172;2023-04-03T11:46:57;1.50;;;0.70;;
65172;SDS011;51758;52.218;5.172;2023-04-03T11:55:44;1.73;;;0.80;;
65172;SDS011;51758;52.218;5.172;2023-04-03T11:58:31;1.70;;;0.95;;
65172;SDS011;51758;52.218;5.172;2023-04-03T12:01:00;2.28;;;0.80;;
65172;SDS011;51758;52.218;5.172;2023-04-03T12:03:35;1.70;;;0.80;;
65172;SDS011;51758;52.218;5.172;2023-04-03T12:12:58;1.88;;;0.80;;
65172;SDS011;51758;52.218;5.172;2023-04-03T12:24:36;2.13;;;1.00;;
65172;SDS011;51758;52.218;5.172;2023-04-03T12:27:20;1.40;;;0.70;;
65172;SDS011;51758;52.218;5.172;2023-04-03T12:29:52;2.80;;;0.90;;
65172;SDS011;51758;52.218;5.172;2023-04-03T12:32:35;1.88;;;0.98;;
65172;SDS011;51758;52.218;5.172;2023-04-03T12:35:14;1.08;;;0.70;;
65172;SDS011;51758;52.218;5.172;2023-04-03T12:38:02;2.35;;;0.80;;
65172;SDS011;51758;52.218;5.172;2023-04-03T12:40:51;2.15;;;1.02;;
65172;SDS011;51758;52.218;5.172;2023-04-03T12:43:39;1.48;;;0.80;;
65172;SDS011;51758;52.218;5.172;2023-04-03T12:46:18;3.17;;;0.98;;
65172;SDS011;51758;52.218;5.172;2023-04-03T12:48:48;2.78;;;0.80;;
65172;SDS011;51758;52.218;5.172;2023-04-03T12:51:18;4.57;;;1.10;;
65172;SDS011;51758;52.218;5.172;2023-04-03T12:53:49;1.98;;;1.00;;
65172;SDS011;51758;52.218;5.172;2023-04-03T12:56:23;2.58;;;1.05;;
65172;SDS011;51758;52.218;5.172;2023-04-03T12:59:13;2.50;;;0.90;;
65172;SDS011;51758;52.218;5.172;2023-04-03T13:01:42;1.77;;;0.90;;
65172;SDS011;51758;52.218;5.172;2023-04-03T13:06:39;1.52;;;0.90;;
65172;SDS011;51758;52.218;5.172;2023-04-03T13:09:17;2.28;;;0.80;;
65172;SDS011;51758;52.218;5.172;2023-04-03T13:11:49;2.38;;;1.00;;
65172;SDS011;51758;52.218;5.172;2023-04-03T13:14:21;1.88;;;0.80;;
65172;SDS011;51758;52.218;5.172;2023-04-03T13:16:53;2.05;;;0.95;;
65172;SDS011;51758;52.218;5.172;2023-04-03T13:19:22;2.13;;;0.80;;
65172;SDS011;51758;52.218;5.172;2023-04-03T13:21:56;2.63;;;0.93;;
65172;SDS011;51758;52.218;5.172;2023-04-03T13:24:29;2.10;;;1.00;;
65172;SDS011;51758;52.218;5.172;2023-04-03T13:26:59;1.83;;;1.00;;
65172;SDS011;51758;52.218;5.172;2023-04-03T13:29:30;2.17;;;0.98;;
65172;SDS011;51758;52.218;5.172;2023-04-03T13:32:00;2.55;;;0.80;;
65172;SDS011;51758;52.218;5.172;2023-04-03T13:34:32;2.08;;;0.80;;
65172;SDS011;51758;52.218;5.172;2023-04-03T13:37:05;1.83;;;0.90;;
65172;SDS011;51758;52.218;5.172;2023-04-03T13:39:34;1.95;;;0.88;;
65172;SDS011;51758;52.218;5.172;2023-04-03T13:42:14;2.85;;;1.20;;
65172;SDS011;51758;52.218;5.172;2023-04-03T13:44:44;2.38;;;1.55;;
65172;SDS011;51758;52.218;5.172;2023-04-03T13:47:15;2.47;;;0.98;;
65172;SDS011;51758;52.218;5.172;2023-04-03T13:49:58;1.90;;;0.90;;
65172;SDS011;51758;52.218;5.172;2023-04-03T13:52:29;3.78;;;1.10;;
65172;SDS011;51758;52.218;5.172;2023-04-03T13:54:59;1.98;;;1.02;;
65172;SDS011;51758;52.218;5.172;2023-04-03T13:57:33;2.00;;;1.20;;
65172;SDS011;51758;52.218;5.172;2023-04-03T14:02:54;2.28;;;1.00;;
65172;SDS011;51758;52.218;5.172;2023-04-03T14:05:24;1.30;;;0.80;;
65172;SDS011;51758;52.218;5.172;2023-04-03T14:07:52;2.55;;;1.13;;
65172;SDS011;51758;52.218;5.172;2023-04-03T14:10:20;2.92;;;0.90;;
65172;SDS011;51758;52.218;5.172;2023-04-03T14:12:49;2.80;;;1.13;;
65172;SDS011;51758;52.218;5.172;2023-04-03T14:15:18;2.45;;;1.08;;
65172;SDS011;51758;52.218;5.172;2023-04-03T14:17:51;3.58;;;1.05;;
65172;SDS011;51758;52.218;5.172;2023-04-03T14:20:20;2.75;;;1.00;;
65172;SDS011;51758;52.218;5.172;2023-04-03T14:22:50;2.33;;;1.20;;
65172;SDS011;51758;52.218;5.172;2023-04-03T14:25:18;1.88;;;1.13;;
65172;SDS011;51758;52.218;5.172;2023-04-03T14:27:48;2.78;;;1.00;;
65172;SDS011;51758;52.218;5.172;2023-04-03T14:30:18;2.05;;;1.10;;
65172;SDS011;51758;52.218;5.172;2023-04-03T14:32:50;1.77;;;1.02;;
65172;SDS011;51758;52.218;5.172;2023-04-03T14:35:18;3.33;;;1.40;;
65172;SDS011;51758;52.218;5.172;2023-04-03T14:37:46;2.13;;;1.20;;
65172;SDS011;51758;52.218;5.172;2023-04-03T14:40:16;3.10;;;1.20;;
65172;SDS011;51758;52.218;5.172;2023-04-03T14:42:47;2.35;;;1.13;;
65172;SDS011;51758;52.218;5.172;2023-04-03T14:45:15;1.80;;;1.10;;
65172;SDS011;51758;52.218;5.172;2023-04-03T14:47:47;2.13;;;1.10;;
65172;SDS011;51758;52.218;5.172;2023-04-03T14:50:19;2.00;;;1.10;;
65172;SDS011;51758;52.218;5.172;2023-04-03T14:52:49;2.25;;;1.50;;
65172;SDS011;51758;52.218;5.172;2023-04-03T14:55:20;1.85;;;1.00;;
65172;SDS011;51758;52.218;5.172;2023-04-03T14:57:49;3.35;;;1.42;;
65172;SDS011;51758;52.218;5.172;2023-04-03T15:00:18;2.25;;;1.30;;
65172;SDS011;51758;52.218;5.172;2023-04-03T15:02:48;3.42;;;1.10;;
65172;SDS011;51758;52.218;5.172;2023-04-03T15:05:16;1.75;;;1.05;;
65172;SDS011;51758;52.218;5.172;2023-04-03T15:07:47;2.83;;;1.40;;
65172;SDS011;51758;52.218;5.172;2023-04-03T15:10:18;3.28;;;1.40;;
65172;SDS011;51758;52.218;5.172;2023-04-03T15:12:48;2.58;;;1.20;;
65172;SDS011;51758;52.218;5.172;2023-04-03T15:15:17;1.83;;;1.00;;
65172;SDS011;51758;52.218;5.172;2023-04-03T15:17:47;3.30;;;1.30;;
65172;SDS011;51758;52.218;5.172;2023-04-03T15:20:20;2.80;;;1.10;;
65172;SDS011;51758;52.218;5.172;2023-04-03T15:22:49;2.83;;;1.00;;
65172;SDS011;51758;52.218;5.172;2023-04-03T15:25:17;2.78;;;1.30;;
65172;SDS011;51758;52.218;5.172;2023-04-03T15:27:45;2.35;;;1.20;;
65172;SDS011;51758;52.218;5.172;2023-04-03T15:30:14;3.08;;;1.30;;
65172;SDS011;51758;52.218;5.172;2023-04-03T15:32:44;3.92;;;1.30;;
65172;SDS011;51758;52.218;5.172;2023-04-03T15:35:13;4.43;;;1.40;;
65172;SDS011;51758;52.218;5.172;2023-04-03T15:37:41;2.55;;;1.27;;
65172;SDS011;51758;52.218;5.172;2023-04-03T15:40:09;3.60;;;1.23;;
65172;SDS011;51758;52.218;5.172;2023-04-03T15:45:06;3.70;;;1.33;;
65172;SDS011;51758;52.218;5.172;2023-04-03T15:47:34;2.25;;;1.30;;
65172;SDS011;51758;52.218;5.172;2023-04-03T15:50:03;3.28;;;1.25;;
65172;SDS011;51758;52.218;5.172;2023-04-03T15:52:35;3.08;;;1.27;;
65172;SDS011;51758;52.218;5.172;2023-04-03T15:55:03;4.25;;;1.30;;
65172;SDS011;51758;52.218;5.172;2023-04-03T15:57:32;3.47;;;1.20;;
65172;SDS011;51758;52.218;5.172;2023-04-03T16:00:05;1.70;;;1.23;;
65172;SDS011;51758;52.218;5.172;2023-04-03T16:02:34;3.85;;;1.27;;
65172;SDS011;51758;52.218;5.172;2023-04-03T16:05:02;1.67;;;1.15;;
65172;SDS011;51758;52.218;5.172;2023-04-03T16:07:30;5.75;;;1.35;;
65172;SDS011;51758;52.218;5.172;2023-04-03T16:09:59;3.88;;;1.67;;